createdAt,value
2023-04-01T00:01:51.871Z,100.00
2023-04-01T00:04:52.912Z,100.00
2023-04-01T00:07:52.905Z,100.00
2023-04-01T00:10:52.894Z,100.00
2023-04-01T00:13:53.220Z,100.00
2023-04-01T00:16:55.883Z,100.00
2023-04-01T00:19:58.284Z,100.00
2023-04-01T00:22:58.932Z,100.00
2023-04-01T00:26:00.160Z,100.00
2023-04-01T00:28:59.928Z,100.00
2023-04-01T00:32:01.028Z,100.00
2023-04-01T00:35:05.995Z,100.00
2023-04-01T00:38:06.919Z,100.00
2023-04-01T00:41:10.979Z,100.00
2023-04-01T00:44:30.935Z,100.00
2023-04-01T00:47:30.984Z,100.00
2023-04-01T00:50:30.982Z,100.00
2023-04-01T00:53:31.986Z,100.00
2023-04-01T00:57:09.932Z,100.00
2023-04-01T01:00:11.988Z,100.00
2023-04-01T01:03:21.027Z,100.00
2023-04-01T01:06:29.007Z,100.00
2023-04-01T01:09:30.023Z,100.00
2023-04-01T01:12:30.974Z,100.00
2023-04-01T01:15:44.020Z,100.00
2023-04-01T01:18:53.998Z,100.00
2023-04-01T01:21:56.985Z,100.00
2023-04-01T01:25:16.044Z,100.00
2023-04-01T01:28:35.028Z,100.00
2023-04-01T01:31:39.068Z,100.00
2023-04-01T01:34:40.296Z,100.00
2023-04-01T01:37:40.024Z,100.00
2023-04-01T01:40:40.048Z,100.00
2023-04-01T01:43:40.996Z,100.00
2023-04-01T01:46:42.089Z,100.00
2023-04-01T01:49:42.012Z,100.00
2023-04-01T01:52:43.133Z,100.00
2023-04-01T01:55:46.031Z,100.00
2023-04-01T01:58:53.082Z,100.00
2023-04-01T02:01:56.629Z,100.00
2023-04-01T02:04:57.206Z,100.00
2023-04-01T02:07:58.046Z,100.00
2023-04-01T02:10:59.100Z,100.00
2023-04-01T02:14:08.054Z,100.00
2023-04-01T02:17:11.105Z,100.00
2023-04-01T02:20:14.082Z,100.00
2023-04-01T02:23:15.121Z,100.00
2023-04-01T02:26:15.131Z,100.00
2023-04-01T02:29:15.163Z,100.00
2023-04-01T02:32:15.114Z,100.00
2023-04-01T02:35:15.089Z,100.00
2023-04-01T02:38:15.146Z,100.00
2023-04-01T02:41:16.180Z,100.00
2023-04-01T02:44:16.121Z,100.00
2023-04-01T02:47:16.163Z,100.00
2023-04-01T02:50:16.223Z,100.00
2023-04-01T02:53:18.175Z,100.00
2023-04-01T02:56:22.590Z,100.00
2023-04-01T02:59:26.157Z,100.00
2023-04-01T03:02:26.278Z,100.00
2023-04-01T03:05:26.163Z,100.00
2023-04-01T03:08:27.203Z,100.00
2023-04-01T03:11:28.204Z,100.00
2023-04-01T03:14:30.398Z,100.00
2023-04-01T03:17:30.324Z,100.00
2023-04-01T03:20:32.194Z,100.00
2023-04-01T03:23:33.190Z,100.00
2023-04-01T03:26:34.231Z,100.00
2023-04-01T03:29:34.269Z,100.00
2023-04-01T03:32:34.249Z,100.00
2023-04-01T03:35:34.473Z,100.00
2023-04-01T03:38:34.268Z,100.00
2023-04-01T03:41:34.265Z,100.00
2023-04-01T03:44:44.243Z,100.00
2023-04-01T03:47:44.250Z,100.00
2023-04-01T03:50:44.290Z,100.00
2023-04-01T03:53:46.311Z,100.00
2023-04-01T03:56:47.257Z,100.00
2023-04-01T03:59:47.232Z,100.00
2023-04-01T04:02:47.393Z,100.00
2023-04-01T04:05:51.322Z,100.00
2023-04-01T04:08:51.285Z,100.00
2023-04-01T04:11:51.287Z,100.00
2023-04-01T04:14:52.308Z,100.00
2023-04-01T04:17:46.448Z,100.00
2023-04-01T04:20:46.314Z,100.00
2023-04-01T04:23:46.313Z,100.00
2023-04-01T04:26:48.392Z,100.00
2023-04-01T04:29:49.362Z,100.00
2023-04-01T04:32:54.435Z,100.00
2023-04-01T04:35:54.378Z,100.00
2023-04-01T04:38:55.347Z,100.00
2023-04-01T04:41:56.308Z,100.00
2023-04-01T04:44:52.348Z,100.00
2023-04-01T04:47:52.368Z,100.00
2023-04-01T04:50:55.378Z,100.00
2023-04-01T04:53:55.359Z,100.00
2023-04-01T04:57:06.413Z,100.00
2023-04-01T05:00:11.413Z,100.00
2023-04-01T05:03:17.536Z,100.00
2023-04-01T05:06:17.351Z,100.00
2023-04-01T05:09:19.375Z,100.00
2023-04-01T05:12:20.371Z,100.00
2023-04-01T05:15:23.464Z,100.00
2023-04-01T05:18:24.389Z,100.00
2023-04-01T05:21:24.472Z,100.00
2023-04-01T05:24:26.434Z,100.00
2023-04-01T05:27:28.438Z,100.00
2023-04-01T05:30:30.382Z,100.00
2023-04-01T05:34:01.493Z,100.00
2023-04-01T05:37:01.463Z,100.00
2023-04-01T05:40:03.442Z,100.00
2023-04-01T05:43:03.447Z,100.00
2023-04-01T05:46:03.537Z,100.00
2023-04-01T05:49:28.852Z,100.00
2023-04-01T05:52:30.565Z,100.00
2023-04-01T05:55:30.610Z,100.00
2023-04-01T05:58:33.624Z,100.00
2023-04-01T06:01:34.481Z,100.00
2023-04-01T06:04:38.508Z,100.00
2023-04-01T06:07:38.535Z,100.00
2023-04-01T06:10:40.645Z,100.00
2023-04-01T06:13:44.522Z,100.00
2023-04-01T06:16:46.497Z,100.00
2023-04-01T06:19:46.505Z,100.00
2023-04-01T06:23:09.563Z,100.00
2023-04-01T06:26:28.526Z,100.00
2023-04-01T06:29:46.584Z,100.00
2023-04-01T06:32:54.733Z,100.00
2023-04-01T06:36:05.629Z,100.00
2023-04-01T06:39:11.517Z,100.00
2023-04-01T06:42:11.590Z,100.00
2023-04-01T06:45:19.606Z,100.00
2023-04-01T06:48:44.552Z,100.00
2023-04-01T06:52:25.742Z,100.00
2023-04-01T06:55:58.576Z,100.00
2023-04-01T06:59:25.605Z,100.00
2023-04-01T07:02:55.723Z,100.00
2023-04-01T07:05:57.566Z,100.00
2023-04-01T07:08:59.684Z,100.00
2023-04-01T07:12:38.572Z,100.00
2023-04-01T07:16:22.193Z,100.00
2023-04-01T07:19:40.612Z,100.00
2023-04-01T07:22:47.674Z,100.00
2023-04-01T07:25:53.601Z,100.00
2023-04-01T07:28:58.635Z,100.00
2023-04-01T07:32:19.644Z,100.00
2023-04-01T07:35:26.720Z,100.00
2023-04-01T07:38:29.714Z,100.00
2023-04-01T07:41:40.724Z,100.00
2023-04-01T07:44:45.753Z,100.00
2023-04-01T07:47:52.769Z,100.00
2023-04-01T07:51:00.864Z,100.00
2023-04-01T07:54:27.711Z,100.00
2023-04-01T07:57:30.720Z,100.00
2023-04-01T08:00:36.747Z,100.00
2023-04-01T08:03:47.914Z,100.00
2023-04-01T08:06:50.685Z,100.00
2023-04-01T08:09:50.749Z,100.00
2023-04-01T08:13:18.736Z,100.00
2023-04-01T08:16:42.740Z,99.38
2023-04-01T08:19:56.709Z,97.94
2023-04-01T08:23:05.044Z,97.37
2023-04-01T08:26:22.755Z,97.50
2023-04-01T08:29:25.736Z,97.57
2023-04-01T08:32:34.778Z,98.58
2023-04-01T08:35:38.568Z,99.98
2023-04-01T08:38:47.765Z,100.00
2023-04-01T08:42:05.737Z,100.00
2023-04-01T08:45:34.901Z,100.00
2023-04-01T08:48:41.861Z,100.00
2023-04-01T08:51:46.780Z,100.00
2023-04-01T08:54:57.907Z,100.00
2023-04-01T08:58:26.937Z,100.00
2023-04-01T09:01:50.799Z,100.00
2023-04-01T09:05:11.761Z,100.00
2023-04-01T09:08:30.852Z,99.81
2023-04-01T09:11:48.061Z,93.68
2023-04-01T09:15:03.883Z,93.07
2023-04-01T09:18:22.852Z,89.00
2023-04-01T09:21:38.048Z,83.59
2023-04-01T09:24:56.940Z,79.05
2023-04-01T09:28:24.905Z,73.42
2023-04-01T09:31:45.877Z,65.14
2023-04-01T09:35:10.164Z,59.28
2023-04-01T09:38:34.070Z,59.07
2023-04-01T09:41:33.854Z,56.46
2023-04-01T09:44:59.878Z,56.00
2023-04-01T09:48:18.892Z,56.24
2023-04-01T09:51:38.874Z,57.40
2023-04-01T09:55:00.116Z,58.57
2023-04-01T09:58:09.849Z,59.03
2023-04-01T10:01:51.951Z,60.58
2023-04-01T10:05:08.033Z,60.15
2023-04-01T10:08:04.027Z,58.64
2023-04-01T10:11:26.950Z,57.83
2023-04-01T10:14:43.940Z,55.59
2023-04-01T10:17:49.953Z,53.41
2023-04-01T10:20:58.054Z,51.93
2023-04-01T10:24:20.942Z,52.42
2023-04-01T10:27:25.003Z,52.14
2023-04-01T10:30:37.955Z,52.59
2023-04-01T10:33:50.065Z,54.92
2023-04-01T10:36:52.973Z,55.67
2023-04-01T10:40:22.990Z,55.57
2023-04-01T10:44:13.001Z,54.43
2023-04-01T10:47:23.011Z,54.68
2023-04-01T10:50:29.204Z,55.00
2023-04-01T10:53:48.081Z,54.52
2023-04-01T10:57:50.069Z,54.97
2023-04-01T11:01:35.068Z,55.85
2023-04-01T11:05:07.066Z,57.93
2023-04-01T11:08:33.190Z,59.53
2023-04-01T11:11:52.084Z,60.68
2023-04-01T11:15:12.042Z,61.28
2023-04-01T11:18:21.060Z,59.77
2023-04-01T11:21:40.069Z,59.12
2023-04-01T11:24:48.059Z,59.77
2023-04-01T11:28:17.139Z,60.34
2023-04-01T11:31:24.346Z,61.14
2023-04-01T11:34:30.115Z,62.10
2023-04-01T11:37:31.122Z,62.66
2023-04-01T11:41:02.450Z,63.57
2023-04-01T11:44:23.094Z,64.60
2023-04-01T11:47:59.126Z,65.51
2023-04-01T11:51:19.128Z,66.30
2023-04-01T11:54:29.156Z,67.10
2023-04-01T11:57:45.129Z,67.36
2023-04-01T12:01:01.087Z,67.07
2023-04-01T12:04:28.321Z,66.18
2023-04-01T12:07:34.115Z,65.55
2023-04-01T12:10:40.181Z,65.32
2023-04-01T12:13:49.140Z,66.17
2023-04-01T12:17:02.156Z,65.87
2023-04-01T12:20:08.144Z,66.11
2023-04-01T12:23:30.120Z,65.89
2023-04-01T12:26:30.150Z,65.43
2023-04-01T12:29:31.183Z,65.92
2023-04-01T12:32:40.218Z,65.85
2023-04-01T12:36:08.149Z,65.69
2023-04-01T12:39:39.253Z,64.90
2023-04-01T12:43:00.194Z,64.50
2023-04-01T12:46:04.240Z,64.43
2023-04-01T12:49:11.195Z,64.42
2023-04-01T12:52:15.210Z,63.73
2023-04-01T12:55:21.318Z,63.87
2023-04-01T12:58:28.196Z,63.78
2023-04-01T13:01:28.314Z,63.16
2023-04-01T13:04:49.286Z,62.26
2023-04-01T13:07:56.288Z,61.60
2023-04-01T13:10:56.251Z,60.88
2023-04-01T13:13:57.276Z,60.41
2023-04-01T13:17:17.258Z,60.50
2023-04-01T13:20:18.350Z,60.62
2023-04-01T13:23:18.231Z,60.68
2023-04-01T13:26:28.268Z,60.59
2023-04-01T13:29:28.288Z,60.76
2023-04-01T13:35:53.515Z,61.09
2023-04-01T13:39:13.339Z,61.23
2023-04-01T13:42:33.771Z,61.23
2023-04-01T13:45:37.356Z,61.08
2023-04-01T13:48:44.327Z,61.11
2023-04-01T13:51:46.293Z,61.13
2023-04-01T13:54:50.613Z,61.38
2023-04-01T13:58:06.322Z,61.35
2023-04-01T14:01:20.851Z,61.51
2023-04-01T14:04:34.320Z,61.74
2023-04-01T14:07:53.356Z,61.92
2023-04-01T14:11:16.340Z,62.77
2023-04-01T14:14:17.366Z,64.49
2023-04-01T14:17:28.333Z,65.85
2023-04-01T14:20:32.078Z,66.35
2023-04-01T14:23:37.975Z,67.15
2023-04-01T14:26:41.395Z,67.36
2023-04-01T14:29:44.330Z,68.37
2023-04-01T14:32:47.416Z,68.42
2023-04-01T14:36:18.722Z,68.06
2023-04-01T14:39:32.403Z,67.34
2023-04-01T14:46:16.766Z,67.23
2023-04-01T14:49:29.393Z,67.25
2023-04-01T14:52:37.606Z,67.14
2023-04-01T14:55:49.034Z,67.30
2023-04-01T14:58:57.469Z,67.25
2023-04-01T15:02:15.434Z,67.34
2023-04-01T15:05:27.837Z,67.19
2023-04-01T15:08:35.479Z,67.37
2023-04-01T15:11:53.441Z,65.48
2023-04-01T15:15:23.460Z,64.62
2023-04-01T15:18:23.552Z,64.23
2023-04-01T15:21:32.440Z,64.60
2023-04-01T15:24:35.527Z,65.11
2023-04-01T15:27:43.522Z,65.66
2023-04-01T15:30:53.648Z,66.33
2023-04-01T15:34:00.467Z,66.99
2023-04-01T15:37:21.723Z,67.85
2023-04-01T15:40:24.492Z,68.44
2023-04-01T15:43:29.523Z,69.15
2023-04-01T15:46:29.863Z,69.76
2023-04-01T15:49:31.525Z,70.77
2023-04-01T15:52:36.501Z,72.46
2023-04-01T15:56:00.513Z,74.43
2023-04-01T15:59:06.633Z,76.32
2023-04-01T16:02:26.583Z,77.35
2023-04-01T16:05:35.714Z,78.68
2023-04-01T16:08:40.915Z,79.56
2023-04-01T16:11:57.854Z,80.53
2023-04-01T16:15:01.804Z,81.42
2023-04-01T16:18:08.686Z,82.48
2023-04-01T16:21:11.549Z,83.38
2023-04-01T16:24:13.605Z,84.15
2023-04-01T16:27:30.795Z,85.26
2023-04-01T16:30:49.609Z,86.41
2023-04-01T16:34:08.895Z,88.05
2023-04-01T16:37:19.647Z,89.15
2023-04-01T16:40:29.288Z,91.39
2023-04-01T16:43:37.437Z,91.94
2023-04-01T16:46:48.864Z,92.41
2023-04-01T16:49:54.587Z,93.15
2023-04-01T16:52:58.773Z,93.90
2023-04-01T16:56:08.656Z,94.68
2023-04-01T16:59:16.609Z,95.67
2023-04-01T17:02:21.839Z,96.59
2023-04-01T17:05:22.638Z,97.85
2023-04-01T17:08:35.795Z,98.56
2023-04-01T17:11:38.662Z,99.53
2023-04-01T17:14:42.680Z,100.00
2023-04-01T17:17:42.726Z,100.00
2023-04-01T17:20:56.749Z,100.00
2023-04-01T17:23:59.790Z,100.00
2023-04-01T17:27:07.725Z,100.00
2023-04-01T17:30:27.663Z,100.00
2023-04-01T17:33:31.919Z,100.00
2023-04-01T17:36:46.769Z,100.00
2023-04-01T17:39:54.926Z,100.00
2023-04-01T17:43:03.001Z,100.00
2023-04-01T17:46:12.958Z,100.00
2023-04-01T17:49:15.752Z,100.00
2023-04-01T17:52:38.766Z,100.00
2023-04-01T17:55:42.758Z,100.00
2023-04-01T17:58:43.768Z,100.00
2023-04-01T18:01:46.839Z,100.00
2023-04-01T18:05:05.285Z,100.00
2023-04-01T18:08:31.765Z,100.00
2023-04-01T18:11:35.737Z,100.00
2023-04-01T18:14:48.801Z,100.00
2023-04-01T18:17:49.835Z,100.00
2023-04-01T18:20:50.806Z,100.00
2023-04-01T18:24:01.632Z,100.00
2023-04-01T18:27:05.811Z,100.00
2023-04-01T18:30:08.833Z,100.00
2023-04-01T18:33:16.572Z,100.00
2023-04-01T18:36:30.002Z,100.00
2023-04-01T18:39:34.794Z,100.00
2023-04-01T18:43:01.867Z,100.00
2023-04-01T18:46:14.105Z,100.00
2023-04-01T18:49:21.819Z,100.00
2023-04-01T18:52:24.839Z,100.00
2023-04-01T18:55:27.843Z,100.00
2023-04-01T18:58:27.950Z,100.00
2023-04-01T19:01:27.972Z,100.00
2023-04-01T19:04:47.809Z,100.00
2023-04-01T19:07:50.934Z,100.00
2023-04-01T19:11:14.012Z,100.00
2023-04-01T19:14:32.856Z,100.00
2023-04-01T19:17:44.960Z,100.00
2023-04-01T19:21:05.230Z,100.00
2023-04-01T19:24:05.860Z,100.00
2023-04-01T19:27:44.954Z,100.00
2023-04-01T19:30:52.877Z,100.00
2023-04-01T19:34:13.950Z,100.00
2023-04-01T19:37:34.068Z,100.00
2023-04-01T19:40:43.893Z,100.00
2023-04-01T19:43:52.869Z,100.00
2023-04-01T19:46:53.966Z,100.00
2023-04-01T19:50:00.988Z,100.00
2023-04-01T19:53:01.935Z,100.00
2023-04-01T19:56:02.926Z,100.00
2023-04-01T19:59:24.976Z,100.00
2023-04-01T20:02:26.262Z,100.00
2023-04-01T20:05:35.185Z,100.00
2023-04-01T20:08:40.045Z,100.00
2023-04-01T20:11:59.960Z,100.00
2023-04-01T20:15:06.082Z,100.00
2023-04-01T20:18:07.983Z,100.00
2023-04-01T20:21:13.969Z,100.00
2023-04-01T20:24:17.035Z,100.00
2023-04-01T20:27:25.018Z,100.00
2023-04-01T20:30:44.014Z,100.00
2023-04-01T20:33:49.059Z,100.00
2023-04-01T20:36:55.132Z,100.00
2023-04-01T20:39:56.994Z,100.00
2023-04-01T20:43:13.032Z,100.00
2023-04-01T20:46:22.524Z,100.00
2023-04-01T20:49:26.076Z,100.00
2023-04-01T20:52:29.222Z,100.00
2023-04-01T20:55:45.059Z,100.00
2023-04-01T20:58:51.024Z,100.00
2023-04-01T21:02:01.039Z,100.00
2023-04-01T21:05:20.036Z,100.00
2023-04-01T21:08:27.014Z,100.00
2023-04-01T21:11:30.107Z,100.00
2023-04-01T21:15:08.235Z,100.00
2023-04-01T21:18:26.064Z,100.00
2023-04-01T21:21:52.092Z,100.00
2023-04-01T21:25:04.472Z,100.00
2023-04-01T21:28:11.050Z,100.00
2023-04-01T21:31:17.109Z,100.00
2023-04-01T21:34:41.047Z,100.00
2023-04-01T21:37:47.074Z,100.00
2023-04-01T21:40:58.113Z,100.00
2023-04-01T21:44:05.246Z,100.00
2023-04-01T21:47:09.094Z,100.00
2023-04-01T21:50:33.126Z,100.00
2023-04-01T21:53:34.112Z,100.00
2023-04-01T21:56:53.176Z,100.00
2023-04-01T22:00:00.217Z,100.00
2023-04-01T22:03:02.019Z,100.00
2023-04-01T22:06:05.128Z,100.00
2023-04-01T22:09:11.182Z,100.00
2023-04-01T22:12:11.118Z,100.00
2023-04-01T22:15:15.170Z,100.00
2023-04-01T22:18:37.147Z,100.00
2023-04-01T22:21:38.169Z,100.00
2023-04-01T22:24:40.166Z,100.00
2023-04-01T22:27:59.129Z,100.00
2023-04-01T22:31:05.172Z,100.00
2023-04-01T22:34:05.175Z,100.00
2023-04-01T22:37:17.212Z,100.00
2023-04-01T22:40:37.193Z,100.00
2023-04-01T22:43:39.223Z,100.00
2023-04-01T22:47:02.184Z,100.00
2023-04-01T22:50:05.270Z,100.00
2023-04-01T22:53:24.187Z,100.00
2023-04-01T22:56:26.193Z,100.00
2023-04-01T22:59:30.246Z,100.00
2023-04-01T23:02:35.324Z,100.00
2023-04-01T23:05:35.440Z,100.00
2023-04-01T23:08:55.236Z,100.00
2023-04-01T23:11:59.211Z,100.00
2023-04-01T23:15:03.277Z,100.00
2023-04-01T23:18:05.315Z,100.00
2023-04-01T23:21:10.327Z,100.00
2023-04-01T23:24:15.276Z,100.00
2023-04-01T23:27:20.274Z,100.00
2023-04-01T23:30:36.276Z,100.00
2023-04-01T23:33:37.288Z,100.00
2023-04-01T23:36:39.264Z,100.00
2023-04-01T23:39:46.303Z,100.00
2023-04-01T23:42:47.321Z,100.00
2023-04-01T23:45:47.354Z,100.00
2023-04-01T23:48:52.269Z,100.00
2023-04-01T23:51:52.365Z,100.00
2023-04-01T23:54:56.342Z,100.00
2023-04-01T23:57:56.325Z,100.00
